»·PEaware :: N182BL KSBP-KOXR

N182BL :: KSBP-KOXR

FLIGHT INFORMATION

Flight Status: Arrived
Operator: Privately registered:
United States
More flights under this callsign
Pilot: James D. (13710)
Aircraft: BEECH AIRCRAFT BARON
(BE58)
More flights by this aircraft type
Origin: KSBP San Luis Co Regl
United States
Destination: KOXR Oxnard
United States
More flights between these airports :: More routes between these airports
Route: +RZS VTU
File this flight plan on PilotEdge
Remarks:
Altitude:
(Current/Filed)
7,000ft
Speed:
(Current/Filed)
200kts
Departed: 07-Jan-18 12:22 PM
Arrived: 07-Jan-18 01:13 PM
Distance/Time
Traveled:
94nm/0:51
Distance/Time
To Go:
Arrived

Flight Plot

Page will automatically refresh every two minutes.


Map Options




Map Legend


Flown Route
Filed Route
Departure Airport
Arrival Airport
Navaid (VOR, NDB)
Fix

Horizontal Profiles

Position Reports

Time Latitude Longitude Heading Altitude Ground
Speed
07-Jan-18 12:04 35.238867 -120.638653 270 184ft 0kts
07-Jan-18 12:05 35.238867 -120.638653 270 184ft 0kts
07-Jan-18 12:06 35.238867 -120.638653 270 184ft 0kts
07-Jan-18 12:07 35.238867 -120.638653 270 184ft 0kts
07-Jan-18 12:08 35.238867 -120.638653 270 184ft 0kts
07-Jan-18 12:09 35.238867 -120.638653 270 184ft 0kts
07-Jan-18 12:10 35.238867 -120.638653 270 184ft 0kts
07-Jan-18 12:11 35.238867 -120.638653 270 184ft 0kts
07-Jan-18 12:12 35.238867 -120.638653 270 184ft 0kts
07-Jan-18 12:13 35.238867 -120.638653 270 184ft 0kts
07-Jan-18 12:14 35.238867 -120.638653 270 184ft 0kts
07-Jan-18 12:15 35.238867 -120.638653 270 184ft 0kts
07-Jan-18 12:16 35.238867 -120.638653 270 184ft 0kts
07-Jan-18 12:17 35.238867 -120.638653 270 184ft 0kts
07-Jan-18 12:18 35.238867 -120.638653 270 184ft 0kts
07-Jan-18 12:19 35.238867 -120.638653 270 184ft 0kts
07-Jan-18 12:20 35.238867 -120.638653 270 184ft 0kts
07-Jan-18 12:21 35.238867 -120.638733 270 184ft 0kts
07-Jan-18 12:22 35.237963 -120.638875 202 184ft 2kts
07-Jan-18 12:23 35.237961 -120.638876 202 184ft 0kts
07-Jan-18 12:24 35.236503 -120.637338 128 184ft 15kts
07-Jan-18 12:25 35.233661 -120.632387 122 184ft 13kts
07-Jan-18 12:26 35.233267 -120.632229 221 184ft 0kts
07-Jan-18 12:27 35.233144 -120.632340 214 184ft 6kts
07-Jan-18 12:28 35.241312 -120.647652 305 397ft 125kts
07-Jan-18 12:29 35.263137 -120.688301 301 1669ft 154kts
07-Jan-18 12:30 35.285604 -120.733128 301 3029ft 152kts
07-Jan-18 12:31 35.304615 -120.773782 277 4125ft 144kts
07-Jan-18 12:32 35.276484 -120.779875 135 5173ft 146kts
07-Jan-18 12:33 35.249985 -120.742527 124 6194ft 148kts
07-Jan-18 12:34 35.224528 -120.702057 129 7004ft 163kts
07-Jan-18 12:35 35.191176 -120.655351 132 7003ft 193kts
07-Jan-18 12:36 35.154416 -120.606157 132 7003ft 199kts
07-Jan-18 12:37 35.115934 -120.555448 132 7007ft 206kts
07-Jan-18 12:38 35.076626 -120.503907 133 7012ft 208kts
07-Jan-18 12:39 35.037002 -120.452155 133 7018ft 208kts
07-Jan-18 12:40 34.997440 -120.400598 132 7019ft 209kts
07-Jan-18 12:41 34.957777 -120.348975 133 7019ft 208kts
07-Jan-18 12:42 34.927151 -120.309171 133 7018ft 208kts
07-Jan-18 12:43 34.890164 -120.261158 133 7017ft 208kts
07-Jan-18 12:44 34.850970 -120.210328 133 7030ft 207kts
07-Jan-18 12:45 34.811565 -120.159312 133 7019ft 204kts
07-Jan-18 12:46 34.773408 -120.109999 133 7013ft 202kts
07-Jan-18 12:47 34.735078 -120.060544 133 7009ft 202kts
07-Jan-18 12:48 34.696848 -120.011293 133 7009ft 202kts
07-Jan-18 12:49 34.658279 -119.961638 134 7010ft 202kts
07-Jan-18 12:50 34.626253 -119.920475 134 7012ft 201kts
07-Jan-18 12:51 34.587873 -119.871229 134 7014ft 200kts
07-Jan-18 12:52 34.549773 -119.822417 134 7016ft 199kts
07-Jan-18 12:53 34.511883 -119.773920 133 7017ft 197kts
07-Jan-18 12:54 34.476240 -119.709486 124 7018ft 197kts
07-Jan-18 12:55 34.451094 -119.663150 124 7018ft 197kts
07-Jan-18 12:56 34.420911 -119.607598 124 7018ft 197kts
07-Jan-18 12:57 34.390750 -119.552168 124 7018ft 197kts
07-Jan-18 12:58 34.360624 -119.496887 124 7015ft 197kts
07-Jan-18 12:59 34.330157 -119.441085 124 6939ft 202kts
07-Jan-18 13:00 34.297275 -119.380713 120 5676ft 219kts
07-Jan-18 13:01 34.292993 -119.310665 92 4477ft 220kts
07-Jan-18 13:02 34.291979 -119.247136 92 4000ft 188kts
07-Jan-18 13:03 34.291268 -119.188071 92 4006ft 170kts
07-Jan-18 13:04 34.290572 -119.131758 92 4008ft 168kts
07-Jan-18 13:05 34.289838 -119.075201 92 4008ft 167kts
07-Jan-18 13:06 34.289145 -119.019887 91 4008ft 165kts
07-Jan-18 13:07 34.288319 -118.964360 92 4008ft 165kts
07-Jan-18 13:08 34.265094 -118.922412 140 4006ft 153kts
07-Jan-18 13:09 34.233805 -118.889496 140 4007ft 147kts
07-Jan-18 13:10 34.201813 -118.882837 236 3906ft 138kts
07-Jan-18 13:11 34.196825 -118.926706 271 3305ft 122kts
07-Jan-18 13:12 34.199380 -118.965201 272 2815ft 100kts
07-Jan-18 13:13 34.199950 -119.005701 264 2958ft 124kts
07-Jan-18 13:14 34.199194 -119.048298 267 2635ft 125kts
07-Jan-18 13:15 34.198676 -119.090428 261 1721ft 128kts
07-Jan-18 13:16 34.200628 -119.132888 268 1120ft 125kts
07-Jan-18 13:17 34.200672 -119.172733 266 575ft 112kts
07-Jan-18 13:18 34.200756 -119.205718 269 38ft 77kts
07-Jan-18 13:19 34.200169 -119.211251 181 38ft 0kts
07-Jan-18 13:20 34.199170 -119.207432 185 38ft 9kts

Navigation Log

Ident Type
Flight plan parsing failed, navigation log unavailable